createdAt,value
2022-08-08T00:01:52.402Z,46.98
2022-08-08T00:04:30.103Z,47.10
2022-08-08T00:07:28.578Z,46.85
2022-08-08T00:10:01.113Z,47.22
2022-08-08T00:12:33.481Z,47.41
2022-08-08T00:15:17.704Z,47.79
2022-08-08T00:18:03.703Z,48.12
2022-08-08T00:20:51.730Z,47.98
2022-08-08T00:23:42.874Z,48.07
2022-08-08T00:26:14.757Z,47.86
2022-08-08T00:28:53.042Z,48.25
2022-08-08T00:32:15.238Z,48.93
2022-08-08T00:35:08.898Z,48.80
2022-08-08T00:38:30.967Z,48.68
2022-08-08T00:41:10.148Z,48.71
2022-08-08T00:44:18.026Z,48.87
2022-08-08T00:46:58.805Z,48.39
2022-08-08T00:49:37.183Z,48.62
2022-08-08T00:52:19.614Z,49.37
2022-08-08T00:55:06.993Z,48.63
2022-08-08T00:58:12.650Z,49.19
2022-08-08T01:01:10.005Z,49.29
2022-08-08T01:04:04.770Z,49.16
2022-08-08T01:06:47.585Z,48.85
2022-08-08T01:09:41.302Z,49.10
2022-08-08T01:12:07.968Z,48.03
2022-08-08T01:15:17.250Z,49.22
2022-08-08T01:18:16.085Z,49.01
2022-08-08T01:21:07.406Z,49.43
2022-08-08T01:24:16.695Z,49.35
2022-08-08T01:27:07.084Z,50.05
2022-08-08T01:29:59.144Z,50.25
2022-08-08T01:32:59.492Z,50.37
2022-08-08T01:35:38.461Z,50.38
2022-08-08T01:38:44.543Z,50.48
2022-08-08T01:41:34.200Z,50.41
2022-08-08T01:44:31.067Z,50.73
2022-08-08T01:48:14.277Z,50.32
2022-08-08T01:50:48.989Z,50.36
2022-08-08T01:54:33.372Z,50.50
2022-08-08T01:56:46.801Z,50.64
2022-08-08T02:00:01.892Z,50.59
2022-08-08T02:02:34.127Z,49.95
2022-08-08T02:05:56.320Z,51.08
2022-08-08T02:08:47.306Z,50.67
2022-08-08T02:11:23.551Z,50.18
2022-08-08T02:14:21.012Z,50.49
2022-08-08T02:17:10.583Z,50.96
2022-08-08T02:20:08.211Z,51.08
2022-08-08T02:22:58.272Z,50.52
2022-08-08T02:25:32.912Z,50.74
2022-08-08T02:28:26.097Z,50.89
2022-08-08T02:31:59.505Z,51.00
2022-08-08T02:35:08.164Z,51.38
2022-08-08T02:38:09.338Z,51.42
2022-08-08T02:40:56.119Z,51.71
2022-08-08T02:44:37.667Z,51.52
2022-08-08T02:46:59.210Z,50.87
2022-08-08T02:49:48.343Z,51.18
2022-08-08T02:52:50.912Z,51.78
2022-08-08T02:55:23.449Z,51.08
2022-08-08T02:58:30.824Z,51.72
2022-08-08T03:01:39.873Z,52.00
2022-08-08T03:05:03.590Z,51.90
2022-08-08T03:07:57.669Z,51.63
2022-08-08T03:11:05.061Z,51.80
2022-08-08T03:16:02.468Z,51.02
2022-08-08T03:16:48.329Z,51.35
2022-08-08T03:19:50.511Z,52.02
2022-08-08T03:22:38.607Z,51.42
2022-08-08T03:25:14.448Z,51.00
2022-08-08T03:27:49.526Z,51.63
2022-08-08T03:30:23.705Z,51.20
2022-08-08T03:33:56.875Z,51.50
2022-08-08T03:35:57.010Z,51.19
2022-08-08T03:38:55.896Z,51.50
2022-08-08T03:42:12.229Z,51.53
2022-08-08T03:43:59.645Z,51.77
2022-08-08T03:46:32.425Z,51.34
2022-08-08T03:49:15.294Z,51.54
2022-08-08T03:51:55.446Z,51.88
2022-08-08T03:54:41.188Z,51.58
2022-08-08T03:58:34.565Z,52.02
2022-08-08T04:00:11.697Z,51.78
2022-08-08T04:02:47.262Z,51.87
2022-08-08T04:05:19.545Z,51.81
2022-08-08T04:07:54.279Z,51.76
2022-08-08T04:10:20.865Z,52.01
2022-08-08T04:12:49.808Z,52.23
2022-08-08T04:15:16.639Z,52.07
2022-08-08T04:17:58.451Z,52.53
2022-08-08T04:20:28.682Z,52.29
2022-08-08T04:22:57.130Z,52.31
2022-08-08T04:25:29.871Z,52.29
2022-08-08T04:28:35.523Z,52.11
2022-08-08T04:30:45.541Z,52.22
2022-08-08T04:33:15.614Z,52.34
2022-08-08T04:35:43.895Z,52.34
2022-08-08T04:38:21.353Z,52.54
2022-08-08T04:40:51.780Z,52.19
2022-08-08T04:43:22.112Z,52.10
2022-08-08T04:45:50.174Z,52.31
2022-08-08T04:48:17.476Z,52.13
2022-08-08T04:50:48.900Z,52.23
2022-08-08T04:53:51.992Z,52.45
2022-08-08T04:56:04.130Z,52.82
2022-08-08T04:58:31.153Z,52.84
2022-08-08T05:00:59.869Z,52.83
2022-08-08T05:04:11.202Z,52.58
2022-08-08T05:06:25.556Z,52.47
2022-08-08T05:08:55.881Z,52.38
2022-08-08T05:11:26.255Z,52.54
2022-08-08T05:13:57.516Z,52.42
2022-08-08T05:16:52.825Z,52.77
2022-08-08T05:20:12.227Z,52.48
2022-08-08T05:22:06.955Z,52.58
2022-08-08T05:24:34.185Z,52.75
2022-08-08T05:27:04.354Z,52.72
2022-08-08T05:29:30.861Z,52.83
2022-08-08T05:32:03.506Z,52.88
2022-08-08T05:34:47.699Z,53.79
2022-08-08T05:37:39.084Z,53.86
2022-08-08T05:40:11.242Z,53.19
2022-08-08T05:42:44.496Z,53.53
2022-08-08T05:45:25.465Z,53.34
2022-08-08T05:48:00.770Z,53.47
2022-08-08T05:50:30.150Z,53.54
2022-08-08T05:53:54.577Z,53.86
2022-08-08T05:56:10.179Z,53.98
2022-08-08T05:58:57.842Z,54.15
2022-08-08T06:01:56.400Z,53.92
2022-08-08T06:04:23.397Z,53.71
2022-08-08T06:07:00.278Z,53.96
2022-08-08T06:09:58.230Z,53.99
2022-08-08T06:12:30.149Z,53.76
2022-08-08T06:15:03.078Z,53.64
2022-08-08T06:17:51.167Z,53.35
2022-08-08T06:20:20.772Z,53.44
2022-08-08T06:22:49.444Z,52.98
2022-08-08T06:25:18.152Z,52.89
2022-08-08T06:27:50.473Z,53.00
2022-08-08T06:30:20.403Z,53.04
2022-08-08T06:32:58.181Z,52.94
2022-08-08T06:36:07.431Z,53.33
2022-08-08T06:38:21.631Z,53.34
2022-08-08T06:41:03.092Z,53.05
2022-08-08T06:43:34.796Z,52.85
2022-08-08T06:46:04.600Z,52.70
2022-08-08T06:48:36.313Z,52.68
2022-08-08T06:51:07.722Z,53.07
2022-08-08T06:53:39.242Z,53.28
2022-08-08T06:56:07.175Z,52.78
2022-08-08T06:58:34.126Z,52.55
2022-08-08T07:01:11.690Z,52.82
2022-08-08T07:04:39.557Z,52.51
2022-08-08T07:07:12.091Z,52.38
2022-08-08T07:09:59.224Z,52.84
2022-08-08T07:12:47.566Z,52.65
2022-08-08T07:15:32.451Z,52.37
2022-08-08T07:18:37.147Z,52.39
2022-08-08T07:21:02.190Z,52.47
2022-08-08T07:24:05.241Z,52.61
2022-08-08T07:26:35.570Z,52.09
2022-08-08T07:29:05.623Z,52.39
2022-08-08T07:31:35.876Z,52.58
2022-08-08T07:34:08.828Z,52.40
2022-08-08T07:36:37.201Z,51.86
2022-08-08T07:39:10.760Z,51.81
2022-08-08T07:41:58.636Z,52.26
2022-08-08T07:44:37.421Z,52.38
2022-08-08T07:47:07.302Z,52.15
2022-08-08T07:49:34.027Z,52.14
2022-08-08T07:52:02.715Z,52.32
2022-08-08T07:54:42.085Z,52.59
2022-08-08T07:57:28.435Z,52.36
2022-08-08T08:00:16.242Z,52.31
2022-08-08T08:02:47.983Z,52.21
2022-08-08T08:05:26.427Z,52.12
2022-08-08T08:08:07.118Z,52.33
2022-08-08T08:10:35.942Z,52.02
2022-08-08T08:13:25.128Z,52.31
2022-08-08T08:16:06.049Z,51.59
2022-08-08T08:18:51.678Z,51.42
2022-08-08T08:21:35.536Z,51.38
2022-08-08T08:24:19.917Z,50.99
2022-08-08T08:26:54.767Z,50.99
2022-08-08T08:29:22.161Z,51.17
2022-08-08T08:31:54.117Z,50.87
2022-08-08T08:34:24.931Z,50.43
2022-08-08T08:36:59.611Z,50.29
2022-08-08T08:40:00.547Z,50.29
2022-08-08T08:42:14.818Z,50.09
2022-08-08T08:44:57.330Z,49.90
2022-08-08T08:47:26.253Z,49.79
2022-08-08T08:49:52.789Z,49.70
2022-08-08T08:52:22.231Z,49.68
2022-08-08T08:54:59.902Z,49.58
2022-08-08T08:57:29.261Z,49.21
2022-08-08T09:00:01.698Z,48.94
2022-08-08T09:02:35.109Z,48.82
2022-08-08T09:05:06.090Z,49.08
2022-08-08T09:07:39.691Z,48.50
2022-08-08T09:10:23.688Z,48.36
2022-08-08T09:12:56.524Z,47.74
2022-08-08T09:15:40.879Z,48.52
2022-08-08T09:18:09.413Z,47.63
2022-08-08T09:22:02.959Z,47.07
2022-08-08T09:23:33.313Z,47.51
2022-08-08T09:26:23.471Z,47.26
2022-08-08T09:28:57.805Z,47.42
2022-08-08T09:31:55.914Z,47.34
2022-08-08T09:34:32.516Z,46.61
2022-08-08T09:37:57.138Z,46.65
2022-08-08T09:40:10.503Z,45.71
2022-08-08T09:42:44.171Z,46.00
2022-08-08T09:46:02.201Z,45.90
2022-08-08T09:48:21.858Z,46.83
2022-08-08T09:50:56.876Z,46.46
2022-08-08T09:53:56.515Z,46.58
2022-08-08T09:56:24.895Z,45.73
2022-08-08T09:58:57.701Z,44.88
2022-08-08T10:01:59.470Z,44.46
2022-08-08T10:04:35.641Z,44.50
2022-08-08T10:07:07.602Z,44.69
2022-08-08T10:10:00.989Z,44.35
2022-08-08T10:12:38.012Z,43.77
2022-08-08T10:15:17.528Z,43.96
2022-08-08T10:18:06.662Z,44.13
2022-08-08T10:20:51.289Z,44.50
2022-08-08T10:23:42.019Z,45.04
2022-08-08T10:26:30.396Z,43.79
2022-08-08T10:29:03.199Z,43.61
2022-08-08T10:31:49.570Z,44.52
2022-08-08T10:34:21.088Z,43.26
2022-08-08T10:36:48.940Z,43.05
2022-08-08T10:39:43.021Z,41.90
2022-08-08T10:42:19.075Z,43.11
2022-08-08T10:44:49.479Z,43.01
2022-08-08T10:47:20.610Z,42.57
2022-08-08T10:50:02.172Z,42.79
2022-08-08T10:52:33.729Z,41.49
2022-08-08T10:55:07.724Z,41.23
2022-08-08T10:57:50.208Z,40.83
2022-08-08T11:00:27.293Z,41.60
2022-08-08T11:02:55.233Z,42.12
2022-08-08T11:05:22.974Z,41.66
2022-08-08T11:08:36.927Z,41.49
2022-08-08T11:10:37.825Z,40.40
2022-08-08T11:13:29.633Z,40.56
2022-08-08T11:15:52.318Z,37.24
2022-08-08T11:18:30.489Z,35.16
2022-08-08T11:21:00.963Z,34.95
2022-08-08T11:23:36.744Z,33.93
2022-08-08T11:26:05.375Z,33.08
2022-08-08T11:28:38.844Z,32.27
2022-08-08T11:31:09.537Z,32.26
2022-08-08T11:33:51.726Z,32.61
2022-08-08T11:36:28.911Z,33.13
2022-08-08T11:38:56.396Z,34.84
2022-08-08T11:41:32.111Z,34.78
2022-08-08T11:44:01.339Z,35.13
2022-08-08T11:46:30.607Z,34.62
2022-08-08T11:49:00.163Z,34.44
2022-08-08T11:51:39.257Z,34.18
2022-08-08T11:54:26.892Z,32.47
2022-08-08T11:56:56.139Z,31.67
2022-08-08T11:59:57.782Z,30.26
2022-08-08T12:02:33.000Z,29.35
2022-08-08T12:05:04.850Z,28.73
2022-08-08T12:07:53.533Z,29.56
2022-08-08T12:10:22.103Z,28.97
2022-08-08T12:12:51.866Z,28.80
2022-08-08T12:15:28.183Z,31.71
2022-08-08T12:17:54.911Z,29.92
2022-08-08T12:20:21.567Z,30.66
2022-08-08T12:22:53.541Z,32.43
2022-08-08T12:25:29.731Z,32.96
2022-08-08T12:28:15.318Z,33.53
2022-08-08T12:30:48.015Z,31.25
2022-08-08T12:33:37.593Z,30.17
2022-08-08T12:36:16.379Z,30.17
2022-08-08T12:38:51.223Z,29.07
2022-08-08T12:41:33.933Z,29.25
2022-08-08T12:44:10.912Z,29.05
2022-08-08T12:46:37.660Z,29.06
2022-08-08T12:49:25.124Z,29.51
2022-08-08T12:51:58.457Z,29.63
2022-08-08T12:54:36.763Z,31.56
2022-08-08T12:57:38.354Z,30.93
2022-08-08T13:00:33.818Z,30.42
2022-08-08T13:03:05.706Z,31.44
2022-08-08T13:06:02.215Z,30.94
2022-08-08T13:08:21.953Z,31.22
2022-08-08T13:10:56.586Z,32.02
2022-08-08T13:13:35.172Z,31.70
2022-08-08T13:16:20.980Z,32.25
2022-08-08T13:18:58.357Z,32.26
2022-08-08T13:21:48.851Z,32.52
2022-08-08T13:24:18.697Z,32.86
2022-08-08T13:27:05.244Z,32.58
2022-08-08T13:29:54.454Z,32.57
2022-08-08T13:32:23.788Z,32.75
2022-08-08T13:34:55.411Z,33.38
2022-08-08T13:37:52.251Z,33.26
2022-08-08T13:40:10.732Z,32.96
2022-08-08T13:42:37.762Z,33.67
2022-08-08T13:45:05.875Z,32.72
2022-08-08T13:47:38.507Z,33.29
2022-08-08T13:50:35.882Z,33.17
2022-08-08T13:52:56.427Z,34.87
2022-08-08T13:55:36.274Z,35.36
2022-08-08T13:58:08.365Z,35.14
2022-08-08T14:00:45.483Z,35.48
2022-08-08T14:03:53.880Z,34.48
2022-08-08T14:06:20.506Z,32.71
2022-08-08T14:08:57.904Z,31.80
2022-08-08T14:11:27.939Z,30.19
2022-08-08T14:13:59.470Z,29.23
2022-08-08T14:16:27.839Z,28.26
2022-08-08T14:19:01.002Z,28.50
2022-08-08T14:21:51.924Z,29.26
2022-08-08T14:24:33.673Z,29.43
2022-08-08T14:27:01.714Z,28.99
2022-08-08T14:29:30.436Z,28.69
2022-08-08T14:32:09.037Z,28.21
2022-08-08T14:34:42.145Z,28.04
2022-08-08T14:37:13.108Z,27.78
2022-08-08T14:39:49.802Z,25.96
2022-08-08T14:42:25.119Z,26.82
2022-08-08T14:45:01.051Z,26.42
2022-08-08T14:47:30.328Z,26.29
2022-08-08T14:50:21.453Z,24.75
2022-08-08T14:53:09.746Z,24.37
2022-08-08T14:55:42.334Z,23.97
2022-08-08T14:58:16.114Z,24.11
2022-08-08T15:00:44.936Z,24.49
2022-08-08T15:03:14.532Z,24.87
2022-08-08T15:05:52.346Z,25.17
2022-08-08T15:08:35.484Z,24.12
2022-08-08T15:11:06.741Z,24.52
2022-08-08T15:13:35.194Z,24.23
2022-08-08T15:16:12.242Z,23.69
2022-08-08T15:18:50.081Z,23.31
2022-08-08T15:21:18.682Z,23.72
2022-08-08T15:23:51.551Z,23.18
2022-08-08T15:26:21.515Z,22.87
2022-08-08T15:28:53.050Z,22.24
2022-08-08T15:31:55.651Z,22.56
2022-08-08T15:34:08.423Z,21.88
2022-08-08T15:36:35.489Z,21.88
2022-08-08T15:39:04.234Z,22.05
2022-08-08T15:41:43.601Z,21.22
2022-08-08T15:44:13.340Z,21.77
2022-08-08T15:46:45.576Z,20.61
2022-08-08T15:49:20.655Z,21.00
2022-08-08T15:51:54.691Z,20.46
2022-08-08T15:54:38.866Z,20.17
2022-08-08T15:57:08.929Z,20.39
2022-08-08T16:00:05.623Z,20.83
2022-08-08T16:02:31.049Z,20.98
2022-08-08T16:05:00.571Z,21.72
2022-08-08T16:07:39.428Z,22.17
2022-08-08T16:13:04.329Z,23.24
2022-08-08T16:13:31.932Z,23.77
2022-08-08T16:15:58.083Z,24.45
2022-08-08T16:18:35.827Z,24.35
2022-08-08T16:21:03.044Z,24.56
2022-08-08T16:23:32.913Z,24.30
2022-08-08T16:26:12.840Z,23.97
2022-08-08T16:28:44.300Z,23.77
2022-08-08T16:31:12.370Z,23.57
2022-08-08T16:33:40.156Z,23.64
2022-08-08T16:36:09.852Z,23.61
2022-08-08T16:38:44.544Z,23.52
2022-08-08T16:41:18.503Z,24.24
2022-08-08T16:43:50.862Z,24.44
2022-08-08T16:46:37.692Z,25.16
2022-08-08T16:49:08.782Z,25.46
2022-08-08T16:55:18.393Z,26.64
2022-08-08T16:55:20.745Z,25.93
2022-08-08T16:57:22.781Z,26.80
2022-08-08T16:59:51.904Z,27.14
2022-08-08T17:02:32.628Z,27.69
2022-08-08T17:05:08.040Z,28.11
2022-08-08T17:07:37.862Z,28.47
2022-08-08T17:10:11.525Z,29.03
2022-08-08T17:12:39.035Z,29.14
2022-08-08T17:15:17.805Z,29.34
2022-08-08T17:18:03.620Z,29.97
2022-08-08T17:20:40.227Z,30.16
2022-08-08T17:23:17.546Z,30.19
2022-08-08T17:25:55.000Z,30.91
2022-08-08T17:28:34.942Z,31.21
2022-08-08T17:31:39.585Z,31.31
2022-08-08T17:34:47.920Z,31.63
2022-08-08T17:37:01.078Z,32.14
2022-08-08T17:40:04.101Z,32.18
2022-08-08T17:42:12.432Z,32.53
2022-08-08T17:44:39.789Z,32.64
2022-08-08T17:47:11.015Z,32.85
2022-08-08T17:49:43.474Z,33.12
2022-08-08T17:52:10.690Z,32.95
2022-08-08T17:54:37.517Z,33.04
2022-08-08T17:57:05.742Z,33.24
2022-08-08T17:59:36.527Z,33.49
2022-08-08T18:02:16.343Z,33.29
2022-08-08T18:04:48.607Z,33.42
2022-08-08T18:08:03.575Z,33.73
2022-08-08T18:10:05.235Z,33.76
2022-08-08T18:12:31.803Z,34.05
2022-08-08T18:14:58.700Z,34.06
2022-08-08T18:17:28.428Z,34.20
2022-08-08T18:20:43.316Z,34.36
2022-08-08T18:22:59.948Z,34.49
2022-08-08T18:25:26.497Z,34.58
2022-08-08T18:28:03.995Z,34.76
2022-08-08T18:30:30.537Z,34.91
2022-08-08T18:32:59.776Z,35.20
2022-08-08T18:35:30.678Z,35.34
2022-08-08T18:38:16.902Z,35.52
2022-08-08T18:40:45.843Z,35.69
2022-08-08T18:43:16.047Z,35.68
2022-08-08T18:46:00.334Z,36.26
2022-08-08T18:48:30.876Z,36.00
2022-08-08T18:50:58.741Z,36.28
2022-08-08T18:54:02.913Z,36.70
2022-08-08T18:56:29.281Z,36.78
2022-08-08T18:58:55.818Z,37.03
2022-08-08T19:02:25.346Z,37.15
2022-08-08T19:04:12.607Z,37.34
2022-08-08T19:06:39.801Z,37.40
2022-08-08T19:09:13.011Z,37.63
2022-08-08T19:11:40.311Z,37.84
2022-08-08T19:14:12.913Z,38.28
2022-08-08T19:16:41.242Z,38.40
2022-08-08T19:19:13.865Z,38.27
2022-08-08T19:21:49.501Z,38.24
2022-08-08T19:24:18.507Z,38.48
2022-08-08T19:27:06.630Z,38.89
2022-08-08T19:29:35.775Z,39.18
2022-08-08T19:32:09.241Z,39.20
2022-08-08T19:34:41.501Z,39.58
2022-08-08T19:37:15.951Z,39.54
2022-08-08T19:39:43.479Z,39.87
2022-08-08T19:42:13.524Z,39.92
2022-08-08T19:44:46.404Z,39.92
2022-08-08T19:47:24.877Z,40.04
2022-08-08T19:50:00.545Z,40.17
2022-08-08T19:52:35.126Z,40.48
2022-08-08T19:55:12.942Z,41.49
2022-08-08T19:57:43.208Z,40.98
2022-08-08T20:00:30.067Z,41.37
2022-08-08T20:02:59.447Z,40.78
2022-08-08T20:06:14.323Z,41.08
2022-08-08T20:08:30.992Z,41.17
2022-08-08T20:10:59.911Z,40.83
2022-08-08T20:14:12.410Z,41.19
2022-08-08T20:16:13.324Z,40.95
2022-08-08T20:18:52.467Z,41.74
2022-08-08T20:21:23.230Z,41.34
2022-08-08T20:23:54.225Z,41.70
2022-08-08T20:26:29.927Z,40.21
2022-08-08T20:28:59.103Z,41.02
2022-08-08T20:31:47.095Z,41.23
2022-08-08T20:34:28.765Z,41.71
2022-08-08T20:37:02.491Z,41.88
2022-08-08T20:39:39.441Z,41.90
2022-08-08T20:42:28.169Z,42.33
2022-08-08T20:44:57.257Z,42.64
2022-08-08T20:47:25.400Z,42.66
2022-08-08T20:49:57.484Z,42.38
2022-08-08T20:52:26.498Z,42.49
2022-08-08T20:54:53.268Z,42.85
2022-08-08T20:57:21.107Z,42.68
2022-08-08T20:59:48.081Z,42.70
2022-08-08T21:02:19.995Z,42.80
2022-08-08T21:04:53.088Z,42.97
2022-08-08T21:07:47.647Z,42.98
2022-08-08T21:10:13.051Z,43.20
2022-08-08T21:12:41.416Z,43.46
2022-08-08T21:15:12.006Z,43.84
2022-08-08T21:17:45.133Z,43.77
2022-08-08T21:20:22.639Z,43.78
2022-08-08T21:23:02.314Z,43.96
2022-08-08T21:25:29.277Z,44.24
2022-08-08T21:28:09.350Z,44.24
2022-08-08T21:30:45.366Z,44.50
2022-08-08T21:33:16.541Z,44.60
2022-08-08T21:36:16.280Z,44.88
2022-08-08T21:38:30.005Z,44.90
2022-08-08T21:40:57.886Z,45.28
2022-08-08T21:43:33.803Z,45.50
2022-08-08T21:48:12.845Z,45.38
2022-08-08T21:48:52.031Z,45.27
2022-08-08T21:51:46.019Z,45.63
2022-08-08T21:54:34.361Z,45.80
2022-08-08T21:56:54.502Z,45.96
2022-08-08T21:59:21.243Z,45.91
2022-08-08T22:01:52.295Z,46.18
2022-08-08T22:04:24.795Z,46.20
2022-08-08T22:06:52.480Z,46.42
2022-08-08T22:09:19.421Z,46.67
2022-08-08T22:11:56.552Z,46.77
2022-08-08T22:14:29.790Z,46.33
2022-08-08T22:16:56.514Z,46.75
2022-08-08T22:19:29.514Z,46.87
2022-08-08T22:21:56.696Z,47.05
2022-08-08T22:24:28.126Z,47.32
2022-08-08T22:27:02.658Z,47.37
2022-08-08T22:29:59.169Z,47.66
2022-08-08T22:32:19.084Z,47.50
2022-08-08T22:34:51.173Z,47.62
2022-08-08T22:37:27.891Z,48.01
2022-08-08T22:40:11.918Z,48.67
2022-08-08T22:42:47.115Z,48.08
2022-08-08T22:45:15.526Z,48.24
2022-08-08T22:47:49.082Z,48.40
2022-08-08T22:50:25.267Z,48.36
2022-08-08T22:53:22.438Z,48.86
2022-08-08T22:55:58.517Z,48.90
2022-08-08T22:58:33.069Z,49.20
2022-08-08T23:02:01.607Z,49.58
2022-08-08T23:03:56.325Z,49.33
2022-08-08T23:06:24.488Z,49.72
2022-08-08T23:08:56.014Z,49.78
2022-08-08T23:12:27.769Z,50.09
2022-08-08T23:14:21.169Z,50.64
2022-08-08T23:16:58.000Z,50.36
2022-08-08T23:19:30.620Z,50.44
2022-08-08T23:21:58.725Z,50.23
2022-08-08T23:24:25.253Z,50.55
2022-08-08T23:26:56.080Z,50.45
2022-08-08T23:29:25.339Z,50.68
2022-08-08T23:31:52.206Z,50.74
2022-08-08T23:34:19.891Z,50.79
2022-08-08T23:36:47.756Z,51.00
2022-08-08T23:39:15.536Z,50.99
2022-08-08T23:41:46.878Z,51.05
2022-08-08T23:44:16.916Z,51.41
2022-08-08T23:49:01.796Z,51.40
2022-08-08T23:49:33.909Z,51.65
2022-08-08T23:52:06.351Z,52.02
2022-08-08T23:54:41.207Z,52.39
2022-08-08T23:57:25.367Z,52.08
